Time;durP1;ratioP1;P1;durP2;ratioP2;P2;SDS_P1;SDS_P2;PMS_P1;PMS_P2;Temp;Humidity;BMP_temperature;BMP_pressure;BME280_temperature;BME280_humidity;BME280_pressure;Samples;Min_cycle;Max_cycle;Signal;HPM_P1;HPM_P2
2022/05/18 00:00:27;;;;;;;;;;;21.10;54.90;;;;;;5111841;27;19931;-58
2022/05/18 00:02:54;;;;;;;;;;;21.10;54.90;;;;;;5095786;27;19920;-54
2022/05/18 00:05:21;;;;;;;;;;;21.10;54.80;;;;;;5095591;28;19928;-59
2022/05/18 00:07:47;;;;;;;;;;;21.10;54.80;;;;;;5106690;28;20014;-57
2022/05/18 00:10:14;;;;;;;;;;;21.10;54.80;;;;;;5118208;27;19926;-60
2022/05/18 00:12:45;;;;;;;;;;;21.00;54.60;;;;;;5104828;28;19934;-61
2022/05/18 00:15:11;;;;;;;;;;;21.10;54.60;;;;;;5100574;27;20031;-59
2022/05/18 00:17:38;;;;;;;;;;;21.00;54.30;;;;;;5097501;27;19924;-59
2022/05/18 00:20:05;;;;;;;;;;;21.00;54.10;;;;;;5093960;28;19947;-56
2022/05/18 00:22:32;;;;;;;;;;;21.00;53.90;;;;;;5102635;28;20433;-56
2022/05/18 00:25:00;;;;;;;;;;;21.00;53.70;;;;;;5099846;28;19929;-60
2022/05/18 00:27:27;;;;;;;;;;;21.00;53.40;;;;;;5130859;27;19924;-59
2022/05/18 00:29:55;;;;;;;;;;;20.90;53.10;;;;;;5099563;27;20440;-59
2022/05/18 00:32:22;;;;;;;;;;;20.90;52.70;;;;;;5109751;27;20389;-57
2022/05/18 00:34:48;;;;;;;;;;;20.90;52.60;;;;;;5126471;27;19927;-60
2022/05/18 00:37:15;;;;;;;;;;;20.80;52.20;;;;;;5099913;27;20385;-59
2022/05/18 00:39:42;;;;;;;;;;;20.80;52.00;;;;;;5128608;27;19963;-59
2022/05/18 00:42:17;;;;;;;;;;;20.80;51.90;;;;;;5110498;27;19926;-60
2022/05/18 00:44:44;;;;;;;;;;;20.80;51.80;;;;;;5108721;28;20010;-60
2022/05/18 00:47:12;;;;;;;;;;;20.70;51.50;;;;;;5095398;28;19970;-57
2022/05/18 00:49:38;;;;;;;;;;;20.70;51.50;;;;;;5109186;27;20329;-56
2022/05/18 00:52:06;;;;;;;;;;;20.70;51.20;;;;;;5125704;27;19974;-57
2022/05/18 00:54:34;;;;;;;;;;;20.70;51.00;;;;;;5096271;28;19920;-59
2022/05/18 00:57:01;;;;;;;;;;;20.60;50.90;;;;;;5104540;27;19924;-57
2022/05/18 00:59:28;;;;;;;;;;;20.60;50.80;;;;;;5117475;27;19924;-57
2022/05/18 01:01:55;;;;;;;;;;;20.60;50.80;;;;;;5104855;27;19924;-57
2022/05/18 01:04:24;;;;;;;;;;;20.60;50.60;;;;;;5111078;27;19939;-57
2022/05/18 01:06:51;;;;;;;;;;;20.60;50.50;;;;;;5143750;27;19934;-56
2022/05/18 01:09:19;;;;;;;;;;;20.60;50.50;;;;;;5109029;27;20428;-58
2022/05/18 01:11:45;;;;;;;;;;;20.60;50.40;;;;;;5105127;28;19980;-57
2022/05/18 01:14:13;;;;;;;;;;;20.50;50.40;;;;;;5099750;27;19992;-57
2022/05/18 01:16:40;;;;;;;;;;;20.50;50.20;;;;;;5105128;28;20010;-58
2022/05/18 01:19:06;;;;;;;;;;;20.50;50.10;;;;;;5092190;28;19920;-59
2022/05/18 01:21:35;;;;;;;;;;;20.50;50.00;;;;;;5130467;27;20159;-57
2022/05/18 01:24:04;;;;;;;;;;;20.50;49.90;;;;;;5104662;27;20010;-57
2022/05/18 01:26:36;;;;;;;;;;;20.50;49.90;;;;;;5109084;27;20192;-56
2022/05/18 01:29:02;;;;;;;;;;;20.50;49.80;;;;;;5106571;28;19931;-56
2022/05/18 01:31:42;;;;;;;;;;;20.50;50.30;;;;;;5102446;28;20369;-59
2022/05/18 01:34:08;;;;;;;;;;;20.50;49.60;;;;;;5098988;27;19920;-57
2022/05/18 01:36:35;;;;;;;;;;;20.50;49.60;;;;;;5082386;28;19926;-59
2022/05/18 01:39:02;;;;;;;;;;;20.50;49.60;;;;;;5124810;27;19924;-58
2022/05/18 01:41:28;;;;;;;;;;;20.50;49.50;;;;;;5110680;27;19920;-57
2022/05/18 01:43:59;;;;;;;;;;;20.50;49.40;;;;;;5111395;27;19941;-58
2022/05/18 01:46:26;;;;;;;;;;;20.40;49.60;;;;;;5105814;27;19919;-56
2022/05/18 01:48:53;;;;;;;;;;;20.40;49.10;;;;;;5113030;27;20026;-59
2022/05/18 01:51:23;;;;;;;;;;;20.40;49.10;;;;;;5100536;28;19940;-59
2022/05/18 01:53:50;;;;;;;;;;;20.40;49.00;;;;;;5099042;27;19926;-56
2022/05/18 01:56:16;;;;;;;;;;;20.40;49.00;;;;;;5099080;28;20360;-60
2022/05/18 01:58:43;;;;;;;;;;;20.40;49.10;;;;;;5104336;28;19962;-58
2022/05/18 02:01:11;;;;;;;;;;;20.40;49.00;;;;;;5099134;28;19919;-56
2022/05/18 02:03:38;;;;;;;;;;;20.40;49.00;;;;;;5110714;28;19924;-56
2022/05/18 02:06:04;;;;;;;;;;;20.40;48.90;;;;;;5104607;28;19975;-58
2022/05/18 02:08:31;;;;;;;;;;;20.40;48.90;;;;;;5101765;28;19977;-59
2022/05/18 02:10:58;;;;;;;;;;;20.40;48.80;;;;;;5106190;27;19928;-58
2022/05/18 02:13:24;;;;;;;;;;;20.40;48.80;;;;;;5104742;28;19993;-57
2022/05/18 02:15:51;;;;;;;;;;;20.40;48.70;;;;;;5127098;27;19920;-57
2022/05/18 02:18:19;;;;;;;;;;;20.40;48.70;;;;;;5104496;27;20018;-59
2022/05/18 02:20:46;;;;;;;;;;;20.40;48.70;;;;;;5108599;27;20395;-58
2022/05/18 02:23:13;;;;;;;;;;;20.40;48.60;;;;;;5104154;28;19967;-59
2022/05/18 02:25:39;;;;;;;;;;;20.40;48.60;;;;;;5094833;28;20337;-54
2022/05/18 02:28:06;;;;;;;;;;;20.40;48.50;;;;;;5105110;28;20248;-57
2022/05/18 02:30:33;;;;;;;;;;;20.40;48.40;;;;;;5108111;28;19956;-58
2022/05/18 02:33:00;;;;;;;;;;;20.40;48.40;;;;;;5127992;27;19920;-57
2022/05/18 02:35:28;;;;;;;;;;;20.30;48.30;;;;;;5110378;28;19924;-59
2022/05/18 02:37:55;;;;;;;;;;;20.30;48.30;;;;;;5108259;28;20005;-59
2022/05/18 02:40:39;;;;;;;;;;;20.30;48.20;;;;;;5077937;27;19931;-57
2022/05/18 02:43:05;;;;;;;;;;;20.30;48.20;;;;;;5068030;28;19931;-59
2022/05/18 02:45:32;;;;;;;;;;;20.30;48.20;;;;;;5088966;28;20437;-57
2022/05/18 02:47:59;;;;;;;;;;;20.30;48.20;;;;;;5087271;28;19920;-56
2022/05/18 02:50:26;;;;;;;;;;;20.30;48.20;;;;;;5083818;28;19920;-57
2022/05/18 02:52:53;;;;;;;;;;;20.30;48.10;;;;;;5087723;28;19931;-57
2022/05/18 02:58:06;;;;;;;;;;;20.30;48.10;;;;;;5071025;28;19931;-58
2022/05/18 03:00:32;;;;;;;;;;;20.30;48.10;;;;;;5088158;28;19943;-57
2022/05/18 03:02:59;;;;;;;;;;;20.30;48.10;;;;;;5076441;28;19933;-58
2022/05/18 03:05:26;;;;;;;;;;;20.30;48.00;;;;;;5080750;28;20003;-58
2022/05/18 03:07:53;;;;;;;;;;;20.30;48.00;;;;;;5068946;28;20437;-57
2022/05/18 03:10:20;;;;;;;;;;;20.30;47.90;;;;;;5083926;28;20320;-59
2022/05/18 03:12:46;;;;;;;;;;;20.30;47.90;;;;;;5080618;28;20366;-57
2022/05/18 03:15:14;;;;;;;;;;;20.30;47.80;;;;;;5079885;28;20359;-57
2022/05/18 03:17:41;;;;;;;;;;;20.30;47.80;;;;;;5072423;28;19924;-59
2022/05/18 03:20:08;;;;;;;;;;;20.30;47.80;;;;;;5086266;28;19966;-59
2022/05/18 03:25:21;;;;;;;;;;;20.20;47.80;;;;;;5072500;28;19920;-57
2022/05/18 03:27:48;;;;;;;;;;;20.30;47.80;;;;;;5084582;28;19931;-58
2022/05/18 03:30:16;;;;;;;;;;;20.30;47.80;;;;;;5071033;28;20271;-59
2022/05/18 03:32:44;;;;;;;;;;;20.30;47.80;;;;;;5079020;28;20358;-59
2022/05/18 03:35:10;;;;;;;;;;;20.30;47.80;;;;;;5080269;28;20363;-58
2022/05/18 03:37:38;;;;;;;;;;;20.30;47.80;;;;;;5084571;28;20018;-58
2022/05/18 03:40:06;;;;;;;;;;;20.30;47.80;;;;;;5067920;28;19928;-58
2022/05/18 03:42:32;;;;;;;;;;;20.30;47.70;;;;;;5080039;28;19920;-56
2022/05/18 03:44:59;;;;;;;;;;;20.20;47.70;;;;;;5084583;28;19944;-59
2022/05/18 03:47:27;;;;;;;;;;;20.30;47.70;;;;;;5076241;28;19929;-58
2022/05/18 03:49:54;;;;;;;;;;;20.30;47.60;;;;;;5080383;28;19926;-58
2022/05/18 03:52:20;;;;;;;;;;;20.30;47.60;;;;;;5071437;28;20327;-56
2022/05/18 03:54:47;;;;;;;;;;;20.20;47.50;;;;;;5070864;28;19924;-58
2022/05/18 03:57:14;;;;;;;;;;;20.20;47.50;;;;;;5071929;28;20114;-58
2022/05/18 03:59:40;;;;;;;;;;;20.30;47.70;;;;;;5060837;28;19931;-56
2022/05/18 04:02:07;;;;;;;;;;;20.20;47.50;;;;;;5055643;28;19970;-56
2022/05/18 04:04:35;;;;;;;;;;;20.20;47.40;;;;;;5058536;28;20007;-60
2022/05/18 04:07:02;;;;;;;;;;;20.30;47.50;;;;;;5066044;28;19921;-56
2022/05/18 04:09:29;;;;;;;;;;;20.20;47.40;;;;;;5059799;28;19927;-57
2022/05/18 04:11:56;;;;;;;;;;;20.20;47.40;;;;;;5069442;28;20024;-59
2022/05/18 04:14:22;;;;;;;;;;;20.20;47.40;;;;;;5069740;28;19973;-56
2022/05/18 04:16:50;;;;;;;;;;;20.20;47.30;;;;;;5066908;28;20282;-57
2022/05/18 04:19:16;;;;;;;;;;;20.20;47.30;;;;;;5061654;28;20413;-59
2022/05/18 04:21:44;;;;;;;;;;;20.20;47.30;;;;;;5069174;28;19966;-56
2022/05/18 04:24:11;;;;;;;;;;;20.20;47.30;;;;;;5070937;28;19998;-59
2022/05/18 04:26:38;;;;;;;;;;;20.20;47.30;;;;;;5070680;28;20333;-59
2022/05/18 04:29:04;;;;;;;;;;;20.20;47.30;;;;;;5069120;28;20019;-60
2022/05/18 04:31:31;;;;;;;;;;;20.20;47.20;;;;;;5069753;28;19920;-59
2022/05/18 04:33:57;;;;;;;;;;;20.20;47.30;;;;;;5063730;28;19929;-58
2022/05/18 04:36:24;;;;;;;;;;;20.20;47.20;;;;;;5057871;28;20013;-59
2022/05/18 04:38:52;;;;;;;;;;;20.20;47.20;;;;;;5056444;28;19974;-58
2022/05/18 04:41:19;;;;;;;;;;;20.20;47.20;;;;;;5055598;28;20095;-60
2022/05/18 04:43:46;;;;;;;;;;;20.20;47.20;;;;;;5064230;28;19955;-57
2022/05/18 04:46:12;;;;;;;;;;;20.20;47.10;;;;;;5070987;28;19920;-58
2022/05/18 04:48:41;;;;;;;;;;;20.10;47.00;;;;;;5066884;28;19928;-57
2022/05/18 04:51:07;;;;;;;;;;;20.10;46.90;;;;;;5063721;28;20385;-58
2022/05/18 04:53:35;;;;;;;;;;;20.10;46.90;;;;;;5058618;28;19961;-58
2022/05/18 04:56:03;;;;;;;;;;;20.10;46.90;;;;;;5060770;28;19920;-58
2022/05/18 04:58:30;;;;;;;;;;;20.10;47.00;;;;;;5067266;28;19929;-57
2022/05/18 05:00:58;;;;;;;;;;;20.10;47.00;;;;;;5061788;28;19921;-58
2022/05/18 05:03:24;;;;;;;;;;;20.10;47.00;;;;;;5065966;28;20257;-57
2022/05/18 05:05:51;;;;;;;;;;;20.10;47.10;;;;;;5067208;28;19924;-60
2022/05/18 05:08:18;;;;;;;;;;;20.10;47.10;;;;;;5056390;28;20067;-58
2022/05/18 05:10:45;;;;;;;;;;;20.10;47.00;;;;;;5054037;28;19927;-57
2022/05/18 05:13:13;;;;;;;;;;;20.10;47.00;;;;;;5061553;28;20277;-59
2022/05/18 05:15:39;;;;;;;;;;;20.10;47.00;;;;;;5063505;28;19920;-56
2022/05/18 05:18:06;;;;;;;;;;;20.10;47.00;;;;;;5059939;28;19920;-59
2022/05/18 05:20:33;;;;;;;;;;;20.10;47.00;;;;;;5065530;28;19921;-59
2022/05/18 05:23:00;;;;;;;;;;;20.10;47.00;;;;;;5066164;28;19965;-58
2022/05/18 05:25:26;;;;;;;;;;;20.10;46.90;;;;;;5067051;28;19920;-58
2022/05/18 05:27:55;;;;;;;;;;;20.10;47.00;;;;;;5067588;28;19928;-58
2022/05/18 05:30:23;;;;;;;;;;;20.10;47.00;;;;;;5067784;28;19924;-60
2022/05/18 05:32:50;;;;;;;;;;;20.10;47.10;;;;;;5069691;28;19924;-58
2022/05/18 05:35:16;;;;;;;;;;;20.10;47.10;;;;;;5070165;28;19946;-59
2022/05/18 05:37:43;;;;;;;;;;;20.10;47.10;;;;;;5063709;28;20355;-58
2022/05/18 05:40:10;;;;;;;;;;;20.10;47.10;;;;;;5059701;28;19921;-59
2022/05/18 05:42:37;;;;;;;;;;;20.10;47.20;;;;;;5066917;28;19979;-59
2022/05/18 05:45:04;;;;;;;;;;;20.10;47.20;;;;;;5085014;28;20435;-56
2022/05/18 05:47:32;;;;;;;;;;;20.10;47.30;;;;;;5066867;28;20203;-56
2022/05/18 05:49:58;;;;;;;;;;;20.10;47.30;;;;;;5070934;28;19932;-58
2022/05/18 05:52:25;;;;;;;;;;;20.10;47.30;;;;;;5069623;28;20312;-59
2022/05/18 05:54:52;;;;;;;;;;;20.10;47.40;;;;;;5065697;28;19967;-59
2022/05/18 05:57:19;;;;;;;;;;;20.10;47.90;;;;;;5060381;28;20023;-59
2022/05/18 05:59:46;;;;;;;;;;;20.10;47.40;;;;;;5065497;28;19924;-57
2022/05/18 06:02:15;;;;;;;;;;;20.10;47.40;;;;;;5067431;28;19954;-57
2022/05/18 06:04:43;;;;;;;;;;;20.10;47.40;;;;;;5067916;28;21456;-56
2022/05/18 06:07:10;;;;;;;;;;;20.10;47.40;;;;;;5067852;28;19921;-54
2022/05/18 06:09:37;;;;;;;;;;;20.10;47.40;;;;;;5068884;28;19925;-59
2022/05/18 06:12:04;;;;;;;;;;;20.10;47.50;;;;;;5061206;28;19935;-58
2022/05/18 06:14:30;;;;;;;;;;;20.10;47.50;;;;;;5056389;28;19924;-58
2022/05/18 06:16:57;;;;;;;;;;;20.10;47.50;;;;;;5067386;28;20301;-59
2022/05/18 06:19:23;;;;;;;;;;;20.10;47.50;;;;;;5067015;28;20241;-55
2022/05/18 06:21:51;;;;;;;;;;;20.10;47.60;;;;;;5068937;28;19925;-59
2022/05/18 06:24:19;;;;;;;;;;;20.10;47.60;;;;;;5066431;28;19924;-59
2022/05/18 06:26:46;;;;;;;;;;;20.10;47.70;;;;;;5067040;28;19932;-59
2022/05/18 06:29:12;;;;;;;;;;;20.10;47.70;;;;;;5063918;28;20255;-57
2022/05/18 06:31:39;;;;;;;;;;;20.10;47.70;;;;;;5067602;28;19920;-59
2022/05/18 06:34:06;;;;;;;;;;;20.10;47.70;;;;;;5059692;28;20035;-56
2022/05/18 06:36:33;;;;;;;;;;;20.20;47.80;;;;;;5067704;28;19971;-57
2022/05/18 06:39:02;;;;;;;;;;;20.20;47.90;;;;;;5065888;28;20346;-57
2022/05/18 06:41:28;;;;;;;;;;;20.20;47.90;;;;;;5068783;28;19920;-57
2022/05/18 06:43:56;;;;;;;;;;;20.20;48.00;;;;;;5062737;28;20117;-60
2022/05/18 06:46:22;;;;;;;;;;;20.20;48.00;;;;;;5062784;28;19928;-58
2022/05/18 06:48:49;;;;;;;;;;;20.20;48.00;;;;;;5061021;28;19924;-56
2022/05/18 06:51:19;;;;;;;;;;;20.20;48.10;;;;;;5065288;28;19932;-59
2022/05/18 06:53:46;;;;;;;;;;;20.20;48.00;;;;;;5066201;28;19920;-59
2022/05/18 06:56:14;;;;;;;;;;;20.20;48.00;;;;;;5066666;28;19986;-59
2022/05/18 06:58:41;;;;;;;;;;;20.20;48.00;;;;;;5066770;28;19931;-58
2022/05/18 07:01:08;;;;;;;;;;;20.20;48.00;;;;;;5049439;28;19928;-60
2022/05/18 07:03:35;;;;;;;;;;;20.20;48.00;;;;;;5073058;28;20319;-59
2022/05/18 07:06:02;;;;;;;;;;;20.20;48.10;;;;;;5058109;28;19924;-57
2022/05/18 07:08:29;;;;;;;;;;;20.20;48.10;;;;;;5057328;28;19927;-58
2022/05/18 07:10:55;;;;;;;;;;;20.20;48.10;;;;;;5062367;28;20137;-60
2022/05/18 07:13:23;;;;;;;;;;;20.20;48.20;;;;;;5073242;28;19981;-57
2022/05/18 07:15:50;;;;;;;;;;;20.20;48.20;;;;;;5053584;28;19927;-57
2022/05/18 07:18:16;;;;;;;;;;;20.20;48.30;;;;;;5056212;28;20329;-57
2022/05/18 07:20:43;;;;;;;;;;;20.20;48.30;;;;;;5046992;28;20023;-59
2022/05/18 07:23:10;;;;;;;;;;;20.20;48.30;;;;;;5066535;28;19927;-57
2022/05/18 07:25:37;;;;;;;;;;;20.30;48.40;;;;;;5053379;28;19928;-59
2022/05/18 07:28:04;;;;;;;;;;;20.30;48.40;;;;;;5073969;28;19928;-59
2022/05/18 07:30:32;;;;;;;;;;;20.30;48.50;;;;;;5065275;28;19966;-58
2022/05/18 07:33:00;;;;;;;;;;;20.30;48.60;;;;;;5066261;28;20270;-57
2022/05/18 07:35:28;;;;;;;;;;;20.20;48.60;;;;;;5055369;28;19947;-59
2022/05/18 07:37:55;;;;;;;;;;;20.30;48.70;;;;;;5065385;28;19921;-59
2022/05/18 07:40:22;;;;;;;;;;;20.30;48.70;;;;;;5061300;28;20584;-59
2022/05/18 07:42:48;;;;;;;;;;;20.30;48.70;;;;;;5068853;28;19975;-57
2022/05/18 07:45:17;;;;;;;;;;;20.30;48.70;;;;;;5070799;28;20269;-59
2022/05/18 07:47:46;;;;;;;;;;;20.30;48.70;;;;;;5071491;28;19932;-59
2022/05/18 07:50:12;;;;;;;;;;;20.30;48.80;;;;;;5065914;28;19920;-57
2022/05/18 07:52:39;;;;;;;;;;;20.30;48.80;;;;;;5070952;28;19925;-57
2022/05/18 07:55:06;;;;;;;;;;;20.30;48.90;;;;;;5065666;28;20280;-59
2022/05/18 07:57:33;;;;;;;;;;;20.30;48.80;;;;;;5064187;28;19927;-57
2022/05/18 08:00:00;;;;;;;;;;;20.30;48.80;;;;;;5053571;28;20115;-57
2022/05/18 08:02:27;;;;;;;;;;;20.40;49.00;;;;;;5067986;28;19940;-58
2022/05/18 08:04:55;;;;;;;;;;;20.40;49.00;;;;;;5068025;28;19925;-57
2022/05/18 08:07:22;;;;;;;;;;;20.40;49.00;;;;;;5052860;28;19971;-59
2022/05/18 08:15:17;;;;;;;;;;;20.40;49.00;;;;;;5059889;28;19928;-57
2022/05/18 08:17:44;;;;;;;;;;;20.40;49.10;;;;;;5069840;28;20413;-58
2022/05/18 08:20:14;;;;;;;;;;;20.40;49.70;;;;;;5068834;28;19935;-56
2022/05/18 08:22:40;;;;;;;;;;;20.40;49.10;;;;;;5065739;28;19925;-58
2022/05/18 08:25:08;;;;;;;;;;;20.40;49.10;;;;;;5067592;28;19985;-58
2022/05/18 08:27:35;;;;;;;;;;;20.40;49.20;;;;;;5066157;28;20251;-57
2022/05/18 08:30:02;;;;;;;;;;;20.40;49.10;;;;;;5073613;28;20015;-60
2022/05/18 08:32:29;;;;;;;;;;;20.50;49.30;;;;;;5069193;28;19927;-59
2022/05/18 08:34:55;;;;;;;;;;;20.40;49.10;;;;;;5073927;28;19921;-58
2022/05/18 08:37:23;;;;;;;;;;;20.40;49.20;;;;;;5069367;28;20266;-59
2022/05/18 08:39:50;;;;;;;;;;;20.50;49.40;;;;;;5066507;28;20019;-59
2022/05/18 08:42:17;;;;;;;;;;;20.50;49.70;;;;;;5069943;28;19924;-58
2022/05/18 08:44:44;;;;;;;;;;;20.50;49.50;;;;;;5068227;28;19982;-58
2022/05/18 08:47:11;;;;;;;;;;;20.50;49.60;;;;;;5061970;28;19963;-57
2022/05/18 08:49:41;;;;;;;;;;;20.50;49.70;;;;;;5058811;28;20386;-56
2022/05/18 08:52:14;;;;;;;;;;;20.50;49.80;;;;;;5068352;28;19920;-58
2022/05/18 08:54:45;;;;;;;;;;;20.60;50.60;;;;;;5065529;28;19964;-60
2022/05/18 08:57:15;;;;;;;;;;;20.60;51.10;;;;;;5065392;28;20334;-58
2022/05/18 08:59:41;;;;;;;;;;;20.60;54.20;;;;;;5065486;28;19983;-58
2022/05/18 09:02:10;;;;;;;;;;;20.60;54.40;;;;;;5059627;28;19921;-58
2022/05/18 09:04:40;;;;;;;;;;;20.60;54.60;;;;;;5081453;28;19925;-57
2022/05/18 09:07:08;;;;;;;;;;;20.60;55.30;;;;;;5075541;28;19967;-57
2022/05/18 09:12:21;;;;;;;;;;;20.60;55.80;;;;;;5065777;28;19924;-56
2022/05/18 09:14:48;;;;;;;;;;;20.60;55.80;;;;;;5055446;28;19921;-59
2022/05/18 09:17:18;;;;;;;;;;;20.60;55.90;;;;;;5080722;28;19930;-59
2022/05/18 09:19:47;;;;;;;;;;;20.70;56.50;;;;;;5067931;28;19948;-58
2022/05/18 09:22:17;;;;;;;;;;;20.70;56.20;;;;;;5069354;28;20022;-56
2022/05/18 09:24:47;;;;;;;;;;;20.70;56.40;;;;;;5068807;28;20352;-59
2022/05/18 09:27:29;;;;;;;;;;;20.70;56.20;;;;;;5061837;28;19924;-58
2022/05/18 09:30:02;;;;;;;;;;;20.70;56.60;;;;;;5066441;28;20409;-60
2022/05/18 09:32:32;;;;;;;;;;;20.70;56.80;;;;;;5067402;28;20327;-58
2022/05/18 09:35:03;;;;;;;;;;;20.80;57.00;;;;;;5065835;28;19920;-60
2022/05/18 09:37:32;;;;;;;;;;;20.80;57.20;;;;;;5077125;28;20468;-61
2022/05/18 09:40:00;;;;;;;;;;;20.80;57.50;;;;;;5052217;28;20429;-59
2022/05/18 09:42:27;;;;;;;;;;;20.80;57.20;;;;;;5065694;28;19990;-60
2022/05/18 09:44:56;;;;;;;;;;;20.90;57.70;;;;;;5059576;28;19970;-59
2022/05/18 09:47:25;;;;;;;;;;;20.80;57.60;;;;;;5065372;28;19921;-60
2022/05/18 09:49:52;;;;;;;;;;;20.90;58.10;;;;;;5059867;28;20220;-59
2022/05/18 09:52:20;;;;;;;;;;;20.90;58.10;;;;;;5072113;28;19925;-59
2022/05/18 09:54:47;;;;;;;;;;;20.90;57.90;;;;;;5074999;28;19933;-59
2022/05/18 09:57:14;;;;;;;;;;;20.90;58.00;;;;;;5047158;28;20018;-58
2022/05/18 09:59:41;;;;;;;;;;;20.90;57.80;;;;;;5052332;28;19931;-59
2022/05/18 10:07:44;;;;;;;;;;;21.00;58.70;;;;;;5064533;28;19940;-58
2022/05/18 10:10:12;;;;;;;;;;;21.00;58.20;;;;;;5065222;28;20558;-59
2022/05/18 10:12:41;;;;;;;;;;;21.00;58.00;;;;;;5068219;28;20025;-59
2022/05/18 10:15:09;;;;;;;;;;;21.10;54.70;;;;;;5064325;28;19940;-60
2022/05/18 10:17:37;;;;;;;;;;;21.00;54.50;;;;;;5064782;28;19924;-60
2022/05/18 10:20:06;;;;;;;;;;;21.00;54.40;;;;;;5065391;28;20413;-60
2022/05/18 10:22:35;;;;;;;;;;;21.10;54.70;;;;;;5066976;28;19978;-60
2022/05/18 10:25:05;;;;;;;;;;;21.10;54.80;;;;;;5064728;28;20007;-59
2022/05/18 10:27:32;;;;;;;;;;;21.10;54.70;;;;;;5062782;28;20003;-60
2022/05/18 10:30:04;;;;;;;;;;;21.10;54.80;;;;;;5067022;28;19920;-59
2022/05/18 10:32:32;;;;;;;;;;;21.20;55.10;;;;;;5069234;28;19935;-60
2022/05/18 10:34:59;;;;;;;;;;;21.10;55.20;;;;;;5061557;28;19960;-60
2022/05/18 10:37:27;;;;;;;;;;;21.20;55.60;;;;;;5067235;28;19929;-60
2022/05/18 10:39:57;;;;;;;;;;;21.20;55.90;;;;;;5066602;28;20269;-58
2022/05/18 10:42:24;;;;;;;;;;;21.20;55.70;;;;;;5068372;28;19974;-60
2022/05/18 10:44:51;;;;;;;;;;;21.20;55.80;;;;;;5062330;28;19925;-58
2022/05/18 10:47:19;;;;;;;;;;;21.30;55.80;;;;;;5075757;28;20015;-59
2022/05/18 10:49:46;;;;;;;;;;;21.30;55.70;;;;;;5065009;28;20363;-61
2022/05/18 10:52:13;;;;;;;;;;;21.30;55.70;;;;;;5066753;28;19920;-60
2022/05/18 10:54:43;;;;;;;;;;;21.30;55.70;;;;;;5060777;28;19920;-60
2022/05/18 10:57:11;;;;;;;;;;;21.30;56.40;;;;;;5064502;28;20269;-60
2022/05/18 10:59:42;;;;;;;;;;;21.30;56.00;;;;;;5061143;28;19931;-58
2022/05/18 11:02:09;;;;;;;;;;;21.30;55.80;;;;;;5067531;28;19931;-58
2022/05/18 11:04:41;;;;;;;;;;;21.30;55.80;;;;;;5067785;28;19983;-59
2022/05/18 11:07:07;;;;;;;;;;;21.40;56.20;;;;;;5070157;28;20027;-59
2022/05/18 11:09:34;;;;;;;;;;;21.30;56.10;;;;;;5070064;28;19929;-60
2022/05/18 11:12:04;;;;;;;;;;;21.40;56.30;;;;;;5068630;28;20013;-61
2022/05/18 11:14:32;;;;;;;;;;;21.40;56.40;;;;;;5068448;28;19963;-59
2022/05/18 11:17:01;;;;;;;;;;;21.40;56.30;;;;;;5061374;28;19920;-61
2022/05/18 11:19:31;;;;;;;;;;;21.40;56.20;;;;;;5082818;28;19928;-59
2022/05/18 11:22:02;;;;;;;;;;;21.40;56.10;;;;;;5060860;28;20286;-60
2022/05/18 11:24:29;;;;;;;;;;;21.40;56.00;;;;;;5076085;28;19927;-59
2022/05/18 11:26:58;;;;;;;;;;;21.40;55.90;;;;;;5069076;28;19924;-59
2022/05/18 11:29:35;;;;;;;;;;;21.40;55.80;;;;;;5069424;28;19932;-58
2022/05/18 11:32:05;;;;;;;;;;;21.40;55.90;;;;;;5067136;28;20010;-59
2022/05/18 11:34:34;;;;;;;;;;;21.40;55.80;;;;;;5064288;28;19921;-59
2022/05/18 11:37:12;;;;;;;;;;;21.40;55.80;;;;;;5074976;28;19922;-59
2022/05/18 11:39:39;;;;;;;;;;;21.40;56.00;;;;;;5070812;28;20027;-59
2022/05/18 11:42:10;;;;;;;;;;;21.50;56.30;;;;;;5056962;28;19951;-58
2022/05/18 11:44:40;;;;;;;;;;;21.50;56.80;;;;;;5064444;28;19978;-58
2022/05/18 11:47:14;;;;;;;;;;;21.50;56.20;;;;;;5069837;28;19935;-59
2022/05/18 11:49:42;;;;;;;;;;;21.50;56.30;;;;;;5069162;28;20016;-60
2022/05/18 11:52:13;;;;;;;;;;;21.50;56.30;;;;;;5069650;28;19932;-58
2022/05/18 11:54:42;;;;;;;;;;;21.50;56.20;;;;;;5069470;28;19927;-58
2022/05/18 11:57:11;;;;;;;;;;;21.50;56.10;;;;;;5053743;28;19921;-60
2022/05/18 11:59:53;;;;;;;;;;;21.50;56.00;;;;;;5056419;28;19924;-59
2022/05/18 12:02:42;;;;;;;;;;;21.50;56.00;;;;;;5054600;28;19925;-61
2022/05/18 12:05:23;;;;;;;;;;;21.50;55.90;;;;;;5045922;28;19924;-59
2022/05/18 12:07:57;;;;;;;;;;;21.50;55.80;;;;;;5059076;28;19924;-58
2022/05/18 12:10:27;;;;;;;;;;;21.50;55.90;;;;;;5064683;28;20223;-59
2022/05/18 12:12:56;;;;;;;;;;;21.50;55.80;;;;;;5066946;28;19920;-59
2022/05/18 12:15:26;;;;;;;;;;;21.60;55.90;;;;;;5062495;28;20007;-57
2022/05/18 12:17:53;;;;;;;;;;;21.50;55.90;;;;;;5082776;28;19966;-58
2022/05/18 12:20:20;;;;;;;;;;;21.60;56.10;;;;;;5065263;28;19920;-60
2022/05/18 12:22:49;;;;;;;;;;;21.60;56.00;;;;;;5061799;28;19925;-60
2022/05/18 12:25:16;;;;;;;;;;;21.60;56.00;;;;;;5070528;28;19959;-58
2022/05/18 12:27:43;;;;;;;;;;;21.60;55.90;;;;;;5062649;28;19936;-59
2022/05/18 12:30:10;;;;;;;;;;;21.60;56.00;;;;;;5058965;28;19921;-59
2022/05/18 12:32:38;;;;;;;;;;;21.60;55.80;;;;;;5064778;28;19960;-60
2022/05/18 12:35:08;;;;;;;;;;;21.60;55.80;;;;;;5066368;28;19979;-58
2022/05/18 12:37:35;;;;;;;;;;;21.60;55.80;;;;;;5063492;28;19927;-57
2022/05/18 12:40:06;;;;;;;;;;;21.60;56.00;;;;;;5065397;28;19986;-58
2022/05/18 12:42:34;;;;;;;;;;;21.60;55.80;;;;;;5058552;28;19928;-57
2022/05/18 12:45:02;;;;;;;;;;;21.60;55.80;;;;;;5060159;28;20318;-57
2022/05/18 12:47:29;;;;;;;;;;;21.60;55.80;;;;;;5053169;28;19947;-57
2022/05/18 12:49:58;;;;;;;;;;;21.60;55.80;;;;;;5061858;28;20360;-58
2022/05/18 12:52:38;;;;;;;;;;;21.60;55.70;;;;;;5077207;28;19927;-57
2022/05/18 12:55:06;;;;;;;;;;;21.70;55.70;;;;;;5060363;28;20017;-59
2022/05/18 12:57:52;;;;;;;;;;;21.60;55.60;;;;;;5062880;28;19920;-60
2022/05/18 13:00:39;;;;;;;;;;;21.70;55.50;;;;;;5054870;28;19925;-56
2022/05/18 13:03:20;;;;;;;;;;;21.60;55.40;;;;;;5061522;28;19927;-58
2022/05/18 13:05:48;;;;;;;;;;;21.60;55.40;;;;;;5060063;28;19971;-59
2022/05/18 13:08:37;;;;;;;;;;;21.60;55.40;;;;;;5059576;28;20457;-58
2022/05/18 13:11:09;;;;;;;;;;;21.60;55.40;;;;;;5061856;28;20011;-59
2022/05/18 13:13:35;;;;;;;;;;;21.60;55.30;;;;;;5061041;28;20330;-57
2022/05/18 13:16:02;;;;;;;;;;;21.60;55.30;;;;;;5066098;28;19920;-60
2022/05/18 13:18:30;;;;;;;;;;;21.60;55.20;;;;;;5060047;28;20072;-59
2022/05/18 13:21:05;;;;;;;;;;;21.60;55.10;;;;;;5054822;28;19990;-58
2022/05/18 13:23:36;;;;;;;;;;;21.70;55.10;;;;;;5050755;28;19946;-59
2022/05/18 13:26:07;;;;;;;;;;;21.60;54.90;;;;;;5064068;28;19936;-58
2022/05/18 13:28:34;;;;;;;;;;;21.60;54.80;;;;;;5057648;28;19921;-58
2022/05/18 13:31:01;;;;;;;;;;;21.60;54.70;;;;;;5066945;28;20416;-58
2022/05/18 13:33:29;;;;;;;;;;;21.60;54.50;;;;;;5064850;28;20274;-60
2022/05/18 13:35:55;;;;;;;;;;;21.60;54.40;;;;;;5051686;28;19920;-59
2022/05/18 13:38:24;;;;;;;;;;;21.60;54.30;;;;;;5057418;28;19932;-60
2022/05/18 13:40:53;;;;;;;;;;;21.60;54.30;;;;;;5065611;28;19927;-58
2022/05/18 13:43:20;;;;;;;;;;;21.60;54.10;;;;;;5063942;28;19924;-57
2022/05/18 13:45:48;;;;;;;;;;;21.60;54.10;;;;;;5060378;28;20316;-57
2022/05/18 13:48:15;;;;;;;;;;;21.60;54.10;;;;;;5064555;28;20019;-58
2022/05/18 13:50:42;;;;;;;;;;;21.60;54.00;;;;;;5070170;28;19925;-59
2022/05/18 13:53:10;;;;;;;;;;;21.60;54.00;;;;;;5055373;28;19967;-59
2022/05/18 13:55:40;;;;;;;;;;;21.60;53.90;;;;;;5059404;28;19942;-59
2022/05/18 13:58:07;;;;;;;;;;;21.60;53.90;;;;;;5061103;28;19920;-57
2022/05/18 14:00:36;;;;;;;;;;;21.60;53.80;;;;;;5062528;28;20385;-57
2022/05/18 14:03:03;;;;;;;;;;;21.60;53.80;;;;;;5060325;28;19925;-59
2022/05/18 14:05:31;;;;;;;;;;;21.60;53.70;;;;;;5063216;28;19925;-59
2022/05/18 14:07:58;;;;;;;;;;;21.60;53.70;;;;;;5067788;28;19959;-59
2022/05/18 14:10:27;;;;;;;;;;;21.60;53.60;;;;;;5064553;28;19964;-58
2022/05/18 14:12:57;;;;;;;;;;;21.60;53.60;;;;;;5065848;28;19978;-59
2022/05/18 14:15:23;;;;;;;;;;;21.60;53.50;;;;;;5062143;28;20515;-58
2022/05/18 14:17:50;;;;;;;;;;;21.60;53.50;;;;;;5072143;28;20058;-58
2022/05/18 14:20:19;;;;;;;;;;;21.60;53.50;;;;;;5067324;28;19928;-60
2022/05/18 14:22:46;;;;;;;;;;;21.60;53.50;;;;;;5063291;28;20473;-58
2022/05/18 14:25:15;;;;;;;;;;;21.60;53.40;;;;;;5074003;28;20015;-59
2022/05/18 14:27:42;;;;;;;;;;;21.60;53.40;;;;;;5058688;28;19944;-58
2022/05/18 14:30:11;;;;;;;;;;;21.60;53.40;;;;;;5059466;28;20018;-57
2022/05/18 14:32:41;;;;;;;;;;;21.60;53.40;;;;;;5062825;28;19921;-59
2022/05/18 14:35:08;;;;;;;;;;;21.60;53.40;;;;;;5058086;28;19928;-60
2022/05/18 14:37:35;;;;;;;;;;;21.60;53.40;;;;;;5068348;28;20020;-58
2022/05/18 14:40:02;;;;;;;;;;;21.60;53.30;;;;;;5066744;28;20007;-58